createdAt,value
2023-05-21T00:01:16.541Z,12.75
2023-05-21T00:03:46.079Z,12.52
2023-05-21T00:06:14.106Z,12.52
2023-05-21T00:08:42.361Z,12.82
2023-05-21T00:11:09.801Z,12.65
2023-05-21T00:13:36.830Z,12.52
2023-05-21T00:16:04.016Z,12.32
2023-05-21T00:18:33.990Z,11.75
2023-05-21T00:21:01.998Z,11.65
2023-05-21T00:23:32.795Z,12.25
2023-05-21T00:26:00.422Z,11.07
2023-05-21T00:28:27.764Z,11.70
2023-05-21T00:30:55.244Z,10.77
2023-05-21T00:33:26.384Z,10.93
2023-05-21T00:35:53.896Z,11.48
2023-05-21T00:38:22.417Z,11.52
2023-05-21T00:40:50.020Z,10.85
2023-05-21T00:43:17.284Z,11.80
2023-05-21T00:45:48.751Z,11.25
2023-05-21T00:48:16.938Z,10.75
2023-05-21T00:50:45.292Z,11.77
2023-05-21T00:53:15.489Z,12.95
2023-05-21T00:55:42.638Z,12.18
2023-05-21T00:58:09.870Z,11.82
2023-05-21T01:00:40.639Z,13.70
2023-05-21T01:03:09.357Z,13.02
2023-05-21T01:05:37.024Z,12.32
2023-05-21T01:08:04.664Z,13.77
2023-05-21T01:10:32.250Z,12.50
2023-05-21T01:13:00.001Z,12.98
2023-05-21T01:15:27.829Z,13.13
2023-05-21T01:17:56.318Z,13.00
2023-05-21T01:20:25.500Z,13.65
2023-05-21T01:22:54.479Z,14.43
2023-05-21T01:25:23.177Z,13.75
2023-05-21T01:27:51.362Z,14.95
2023-05-21T01:30:19.880Z,14.73
2023-05-21T01:33:00.744Z,14.75
2023-05-21T01:35:35.398Z,14.82
2023-05-21T01:38:31.181Z,14.68
2023-05-21T01:41:04.767Z,15.73
2023-05-21T01:43:39.112Z,14.63
2023-05-21T01:46:08.121Z,14.38
2023-05-21T01:51:07.463Z,14.27
2023-05-21T01:53:35.113Z,14.50
2023-05-21T01:56:02.982Z,14.23
2023-05-21T01:58:30.434Z,14.77
2023-05-21T02:00:57.468Z,14.43
2023-05-21T02:03:31.178Z,15.20
2023-05-21T02:06:00.023Z,15.23
2023-05-21T02:08:28.024Z,14.00
2023-05-21T02:10:55.957Z,14.32
2023-05-21T02:13:26.203Z,14.40
2023-05-21T02:15:55.273Z,14.25
2023-05-21T02:18:23.648Z,14.13
2023-05-21T02:20:51.225Z,14.10
2023-05-21T02:23:18.282Z,14.32
2023-05-21T02:25:46.114Z,12.63
2023-05-21T02:28:13.559Z,13.13
2023-05-21T02:30:40.594Z,14.18
2023-05-21T02:33:09.636Z,13.65
2023-05-21T02:35:36.954Z,13.20
2023-05-21T02:38:04.397Z,14.20
2023-05-21T02:40:34.027Z,13.45
2023-05-21T02:43:01.269Z,13.32
2023-05-21T02:47:58.743Z,13.52
2023-05-21T02:50:25.827Z,12.32
2023-05-21T02:52:59.873Z,13.82
2023-05-21T02:55:27.433Z,13.37
2023-05-21T02:57:54.452Z,13.50
2023-05-21T03:00:23.364Z,13.68
2023-05-21T03:02:51.756Z,14.30
2023-05-21T03:05:19.068Z,15.20
2023-05-21T03:07:46.504Z,15.30
2023-05-21T03:10:13.617Z,14.88
2023-05-21T03:12:41.002Z,14.73
2023-05-21T03:15:08.877Z,14.60
2023-05-21T03:17:36.035Z,15.27
2023-05-21T03:20:05.770Z,14.25
2023-05-21T03:25:01.938Z,14.05
2023-05-21T03:27:29.740Z,15.48
2023-05-21T03:29:57.793Z,14.60
2023-05-21T03:32:25.075Z,15.77
2023-05-21T03:34:55.223Z,15.32
2023-05-21T03:37:22.444Z,14.60
2023-05-21T03:39:49.796Z,14.63
2023-05-21T03:42:17.079Z,13.80
2023-05-21T03:44:49.785Z,14.55
2023-05-21T03:47:36.926Z,16.00
2023-05-21T03:50:07.439Z,16.10
2023-05-21T03:52:34.870Z,14.90
2023-05-21T03:55:02.335Z,15.43
2023-05-21T03:57:31.193Z,15.70
2023-05-21T04:00:00.971Z,15.57
2023-05-21T04:04:56.221Z,14.90
2023-05-21T04:07:24.738Z,15.30
2023-05-21T04:09:52.138Z,16.17
2023-05-21T04:12:20.657Z,16.08
2023-05-21T04:14:48.289Z,15.68
2023-05-21T04:17:15.321Z,15.75
2023-05-21T04:19:42.337Z,15.70
2023-05-21T04:22:11.335Z,16.13
2023-05-21T04:24:39.620Z,15.02
2023-05-21T04:27:14.208Z,15.90
2023-05-21T04:29:42.883Z,16.95
2023-05-21T04:32:11.653Z,17.50
2023-05-21T04:34:39.959Z,15.27
2023-05-21T04:37:07.106Z,16.40
2023-05-21T04:39:34.800Z,16.17
2023-05-21T04:42:03.192Z,17.08
2023-05-21T04:44:30.458Z,16.05
2023-05-21T04:46:59.073Z,16.42
2023-05-21T04:49:26.123Z,16.48
2023-05-21T04:51:53.233Z,16.10
2023-05-21T04:54:20.340Z,16.70
2023-05-21T04:56:47.467Z,17.10
2023-05-21T04:59:16.112Z,16.70
2023-05-21T05:01:44.064Z,18.10
2023-05-21T05:04:11.188Z,18.00
2023-05-21T05:06:38.185Z,17.80
2023-05-21T05:09:05.770Z,17.67
2023-05-21T05:11:33.001Z,17.33
2023-05-21T05:13:59.948Z,18.00
2023-05-21T05:16:27.956Z,18.58
2023-05-21T05:21:24.193Z,20.58
2023-05-21T05:23:51.417Z,19.80
2023-05-21T05:26:19.839Z,23.15
2023-05-21T05:28:46.937Z,22.65
2023-05-21T05:31:14.226Z,22.90
2023-05-21T05:33:43.325Z,22.90
2023-05-21T05:36:11.755Z,23.23
2023-05-21T05:38:38.806Z,23.70
2023-05-21T05:41:05.929Z,25.20
2023-05-21T05:43:32.979Z,25.05
2023-05-21T05:46:01.077Z,27.98
2023-05-21T05:48:28.730Z,28.05
2023-05-21T05:50:57.178Z,27.70
2023-05-21T05:53:25.903Z,27.10
2023-05-21T05:55:53.375Z,27.15
2023-05-21T05:58:20.417Z,28.35
2023-05-21T06:00:57.465Z,28.70
2023-05-21T06:03:25.430Z,27.92
2023-05-21T06:05:53.667Z,28.85
2023-05-21T06:08:20.795Z,28.35
2023-05-21T06:10:47.671Z,29.20
2023-05-21T06:13:15.252Z,29.27
2023-05-21T06:15:43.470Z,28.85
2023-05-21T06:18:11.557Z,29.08
2023-05-21T06:20:38.806Z,27.15
2023-05-21T06:23:07.423Z,29.58
2023-05-21T06:25:34.891Z,30.52
2023-05-21T06:28:02.186Z,28.50
2023-05-21T06:30:30.833Z,27.90
2023-05-21T06:32:59.037Z,28.48
2023-05-21T06:35:26.341Z,31.02
2023-05-21T06:37:53.385Z,30.05
2023-05-21T06:40:21.988Z,26.90
2023-05-21T06:42:52.866Z,30.77
2023-05-21T06:45:38.567Z,27.20
2023-05-21T06:48:21.919Z,27.50
2023-05-21T06:50:48.938Z,26.33
2023-05-21T06:53:16.564Z,28.13
2023-05-21T06:55:45.425Z,29.03
2023-05-21T06:58:16.129Z,26.75
2023-05-21T07:00:43.151Z,26.13
2023-05-21T07:03:11.001Z,27.40
2023-05-21T07:05:38.426Z,25.80
2023-05-21T07:08:06.586Z,27.50
2023-05-21T07:10:33.826Z,25.30
2023-05-21T07:13:00.738Z,26.13
2023-05-21T07:15:27.814Z,27.00
2023-05-21T07:17:55.101Z,25.73
2023-05-21T07:20:22.149Z,26.42
2023-05-21T07:22:52.275Z,24.38
2023-05-21T07:25:19.380Z,25.88
2023-05-21T07:27:46.364Z,24.30
2023-05-21T07:30:14.674Z,23.48
2023-05-21T07:32:41.724Z,23.90
2023-05-21T07:35:09.112Z,23.63
2023-05-21T07:37:36.475Z,22.13
2023-05-21T07:40:04.485Z,23.73
2023-05-21T07:42:31.561Z,21.55
2023-05-21T07:44:59.041Z,21.50
2023-05-21T07:47:27.364Z,20.55
2023-05-21T07:49:54.394Z,21.95
2023-05-21T07:52:21.526Z,21.23
2023-05-21T07:54:48.531Z,22.80
2023-05-21T07:57:16.150Z,22.08
2023-05-21T08:00:14.259Z,20.77
2023-05-21T08:02:49.484Z,21.38
2023-05-21T08:05:16.681Z,23.83
2023-05-21T08:07:44.625Z,21.70
2023-05-21T08:10:11.685Z,22.42
2023-05-21T08:12:38.770Z,21.45
2023-05-21T08:15:07.722Z,21.98
2023-05-21T08:17:38.352Z,21.17
2023-05-21T08:20:06.095Z,20.73
2023-05-21T08:22:35.627Z,20.80
2023-05-21T08:25:02.841Z,23.60
2023-05-21T08:27:29.939Z,20.35
2023-05-21T08:29:58.179Z,22.75
2023-05-21T08:32:26.371Z,22.60
2023-05-21T08:34:54.642Z,22.95
2023-05-21T08:37:39.188Z,21.80
2023-05-21T08:40:16.887Z,22.90
2023-05-21T08:42:48.188Z,22.20
2023-05-21T08:45:23.840Z,23.08
2023-05-21T08:47:58.534Z,22.55
2023-05-21T08:50:29.218Z,21.73
2023-05-21T08:53:01.361Z,21.40
2023-05-21T08:55:28.712Z,21.52
2023-05-21T08:57:55.774Z,21.23
2023-05-21T09:00:24.999Z,21.77
2023-05-21T09:02:54.646Z,22.40
2023-05-21T09:05:23.188Z,21.85
2023-05-21T09:08:03.129Z,22.77
2023-05-21T09:10:52.898Z,22.00
2023-05-21T09:13:25.487Z,22.33
2023-05-21T09:15:52.616Z,21.63
2023-05-21T09:18:21.129Z,23.20
2023-05-21T09:21:27.472Z,21.48
2023-05-21T09:24:00.172Z,23.15
2023-05-21T09:26:27.424Z,21.58
2023-05-21T09:29:01.992Z,23.13
2023-05-21T09:31:30.131Z,21.45
2023-05-21T09:33:57.273Z,20.83
2023-05-21T09:36:25.950Z,23.33
2023-05-21T09:38:53.885Z,20.85
2023-05-21T09:41:30.997Z,22.40
2023-05-21T09:44:04.751Z,21.02
2023-05-21T09:46:43.189Z,22.17
2023-05-21T09:49:26.846Z,20.63
2023-05-21T09:51:58.318Z,20.77
2023-05-21T09:54:26.533Z,20.85
2023-05-21T09:56:53.695Z,19.77
2023-05-21T09:59:21.627Z,19.98
2023-05-21T10:01:51.911Z,20.45
2023-05-21T10:04:19.750Z,20.77
2023-05-21T10:06:49.146Z,19.88
2023-05-21T10:09:19.381Z,20.30
2023-05-21T10:11:49.606Z,19.98
2023-05-21T10:14:25.424Z,18.45
2023-05-21T10:16:54.813Z,21.30
2023-05-21T10:19:24.968Z,21.27
2023-05-21T10:21:53.359Z,20.65
2023-05-21T10:24:20.914Z,20.95
2023-05-21T10:26:48.945Z,19.58
2023-05-21T10:29:18.168Z,18.70
2023-05-21T10:31:49.847Z,18.65
2023-05-21T10:34:17.543Z,18.48
2023-05-21T10:36:45.239Z,18.20
2023-05-21T10:39:14.477Z,18.33
2023-05-21T10:41:58.980Z,19.15
2023-05-21T10:44:38.047Z,18.75
2023-05-21T10:47:26.137Z,19.67
2023-05-21T10:50:19.413Z,18.15
2023-05-21T10:53:18.902Z,18.33
2023-05-21T10:56:04.891Z,17.88
2023-05-21T10:58:59.605Z,19.05
2023-05-21T11:01:34.303Z,17.48
2023-05-21T11:04:01.887Z,18.13
2023-05-21T11:06:29.090Z,17.85
2023-05-21T11:08:56.216Z,17.98
2023-05-21T11:11:51.527Z,19.20
2023-05-21T11:14:41.631Z,18.75
2023-05-21T11:17:36.190Z,17.38
2023-05-21T11:20:13.712Z,17.83
2023-05-21T11:22:41.062Z,17.00
2023-05-21T11:25:08.755Z,17.80
2023-05-21T11:27:42.842Z,18.48
2023-05-21T11:30:19.188Z,17.90
2023-05-21T11:33:08.312Z,18.23
2023-05-21T11:35:45.353Z,17.35
2023-05-21T11:38:12.457Z,17.05
2023-05-21T11:40:51.689Z,17.60
2023-05-21T11:43:18.934Z,16.00
2023-05-21T11:45:47.351Z,16.85
2023-05-21T11:48:14.696Z,16.83
2023-05-21T11:50:42.498Z,16.27
2023-05-21T11:53:12.237Z,17.38
2023-05-21T11:55:43.604Z,16.50
2023-05-21T11:58:14.510Z,16.33
2023-05-21T12:00:41.518Z,18.05
2023-05-21T12:03:13.127Z,16.60
2023-05-21T12:05:49.795Z,17.23
2023-05-21T12:08:25.632Z,16.35
2023-05-21T12:10:59.075Z,15.20
2023-05-21T12:13:26.980Z,15.60
2023-05-21T12:15:56.978Z,15.90
2023-05-21T12:18:25.063Z,16.80
2023-05-21T12:20:52.456Z,15.45
2023-05-21T12:23:29.800Z,15.45
2023-05-21T12:25:57.952Z,15.25
2023-05-21T12:28:32.313Z,14.57
2023-05-21T12:31:00.829Z,14.93
2023-05-21T12:33:38.018Z,15.20
2023-05-21T12:36:05.433Z,14.40
2023-05-21T12:38:32.493Z,14.75
2023-05-21T12:41:06.761Z,15.30
2023-05-21T12:43:33.908Z,15.15
2023-05-21T12:46:01.289Z,15.55
2023-05-21T12:48:28.436Z,16.00
2023-05-21T12:50:55.478Z,14.82
2023-05-21T12:53:22.461Z,16.15
2023-05-21T12:55:50.527Z,15.23
2023-05-21T12:58:22.359Z,15.73
2023-05-21T13:00:49.663Z,16.08
2023-05-21T13:03:16.769Z,15.43
2023-05-21T13:05:44.623Z,15.07
2023-05-21T13:08:14.155Z,15.10
2023-05-21T13:13:08.673Z,15.30
2023-05-21T13:15:35.854Z,14.82
2023-05-21T13:18:03.308Z,15.45
2023-05-21T13:20:30.484Z,15.40
2023-05-21T13:22:57.874Z,15.85
2023-05-21T13:25:29.716Z,16.02
2023-05-21T13:27:57.595Z,16.40
2023-05-21T13:30:27.917Z,15.32
2023-05-21T13:32:55.863Z,16.10
2023-05-21T13:35:23.239Z,15.98
2023-05-21T13:37:50.727Z,15.73
2023-05-21T13:40:18.382Z,15.98
2023-05-21T13:42:47.421Z,15.55
2023-05-21T13:45:17.530Z,16.02
2023-05-21T13:47:46.101Z,16.55
2023-05-21T13:50:13.557Z,16.45
2023-05-21T13:52:43.466Z,15.63
2023-05-21T13:55:10.844Z,15.60
2023-05-21T13:57:38.066Z,17.35
2023-05-21T14:00:05.972Z,15.93
2023-05-21T14:02:35.026Z,14.43
2023-05-21T14:05:02.224Z,15.40
2023-05-21T14:07:29.311Z,15.43
2023-05-21T14:09:56.827Z,15.45
2023-05-21T14:12:23.884Z,14.93
2023-05-21T14:14:51.293Z,15.45
2023-05-21T14:17:18.436Z,14.40
2023-05-21T14:19:45.421Z,14.45
2023-05-21T14:22:12.450Z,14.25
2023-05-21T14:24:39.447Z,14.82
2023-05-21T14:27:06.337Z,14.30
2023-05-21T14:29:33.501Z,13.85
2023-05-21T14:32:00.748Z,13.20
2023-05-21T14:34:27.822Z,13.73
2023-05-21T14:36:54.826Z,13.32
2023-05-21T14:39:21.995Z,13.15
2023-05-21T14:41:49.068Z,12.55
2023-05-21T14:44:16.301Z,14.00
2023-05-21T14:46:43.554Z,12.77
2023-05-21T14:49:12.006Z,13.77
2023-05-21T14:51:45.283Z,11.50
2023-05-21T14:54:15.369Z,13.80
2023-05-21T14:56:42.432Z,14.00
2023-05-21T14:59:11.402Z,12.98
2023-05-21T15:01:38.948Z,11.55
2023-05-21T15:04:07.654Z,14.32
2023-05-21T15:06:34.974Z,14.25
2023-05-21T15:09:02.069Z,20.83
2023-05-21T15:11:29.124Z,17.52
2023-05-21T15:13:56.310Z,14.40
2023-05-21T15:16:23.468Z,14.18
2023-05-21T15:18:51.243Z,14.57
2023-05-21T15:21:18.410Z,13.80
2023-05-21T15:23:45.717Z,16.48
2023-05-21T15:26:12.775Z,15.32
2023-05-21T15:28:39.879Z,15.30
2023-05-21T15:31:06.888Z,20.58
2023-05-21T15:33:37.111Z,11.52
2023-05-21T15:36:10.544Z,9.68
2023-05-21T15:38:40.730Z,9.68
2023-05-21T15:41:17.529Z,9.50
2023-05-21T15:43:49.565Z,7.35
2023-05-21T15:46:18.669Z,6.72
2023-05-21T15:48:45.951Z,5.55
2023-05-21T15:51:13.039Z,4.95
2023-05-21T15:53:41.497Z,5.35
2023-05-21T15:56:09.282Z,5.32
2023-05-21T15:58:40.954Z,7.10
2023-05-21T16:01:11.099Z,6.15
2023-05-21T16:03:38.275Z,5.85
2023-05-21T16:06:06.486Z,6.05
2023-05-21T16:08:33.907Z,6.00
2023-05-21T16:11:01.159Z,6.25
2023-05-21T16:13:28.250Z,7.40
2023-05-21T16:15:55.473Z,6.88
2023-05-21T16:18:22.612Z,6.85
2023-05-21T16:20:49.596Z,7.45
2023-05-21T16:23:16.654Z,7.13
2023-05-21T16:25:43.632Z,6.25
2023-05-21T16:28:12.185Z,6.65
2023-05-21T16:30:39.185Z,6.90
2023-05-21T16:33:06.405Z,7.13
2023-05-21T16:35:33.606Z,6.53
2023-05-21T16:38:00.658Z,6.85
2023-05-21T16:40:27.640Z,6.97
2023-05-21T16:42:54.611Z,26.80
2023-05-21T16:45:21.877Z,9.43
2023-05-21T16:47:50.225Z,7.90
2023-05-21T16:50:19.099Z,7.43
2023-05-21T16:52:46.235Z,8.30
2023-05-21T16:55:13.169Z,8.23
2023-05-21T16:57:40.159Z,8.65
2023-05-21T17:00:07.918Z,8.70
2023-05-21T17:02:35.051Z,9.10
2023-05-21T17:05:02.076Z,8.25
2023-05-21T17:07:29.283Z,9.00
2023-05-21T17:09:56.184Z,8.57
2023-05-21T17:12:23.289Z,8.13
2023-05-21T17:14:50.318Z,9.13
2023-05-21T17:17:17.401Z,9.23
2023-05-21T17:19:44.829Z,8.38
2023-05-21T17:22:11.873Z,8.95
2023-05-21T17:24:38.903Z,9.45
2023-05-21T17:27:06.162Z,9.82
2023-05-21T17:29:33.291Z,9.18
2023-05-21T17:32:00.646Z,10.60
2023-05-21T17:34:30.343Z,8.95
2023-05-21T17:36:58.815Z,9.55
2023-05-21T17:39:25.976Z,8.15
2023-05-21T17:41:53.032Z,9.70
2023-05-21T17:44:20.169Z,9.05
2023-05-21T17:46:49.287Z,9.25
2023-05-21T17:49:16.866Z,9.15
2023-05-21T17:51:44.397Z,9.38
2023-05-21T17:54:11.524Z,9.13
2023-05-21T17:56:41.102Z,9.30
2023-05-21T17:59:09.316Z,9.10
2023-05-21T18:01:38.222Z,9.07
2023-05-21T18:04:06.612Z,9.60
2023-05-21T18:06:33.674Z,8.88
2023-05-21T18:09:00.673Z,9.48
2023-05-21T18:11:27.610Z,9.57
2023-05-21T18:13:54.805Z,9.85
2023-05-21T18:16:22.111Z,9.45
2023-05-21T18:18:49.159Z,10.05
2023-05-21T18:21:16.495Z,9.05
2023-05-21T18:23:43.498Z,9.48
2023-05-21T18:26:10.393Z,8.85
2023-05-21T18:28:37.382Z,9.98
2023-05-21T18:31:04.444Z,9.13
2023-05-21T18:33:31.684Z,9.00
2023-05-21T18:35:58.897Z,9.27
2023-05-21T18:38:26.398Z,8.88
2023-05-21T18:40:53.490Z,9.90
2023-05-21T18:43:20.405Z,9.55
2023-05-21T18:45:47.530Z,9.50
2023-05-21T18:48:14.613Z,9.48
2023-05-21T18:50:41.552Z,9.80
2023-05-21T18:53:08.536Z,9.90
2023-05-21T18:55:35.805Z,9.77
2023-05-21T18:58:02.784Z,9.38
2023-05-21T19:00:29.954Z,9.80
2023-05-21T19:02:58.399Z,9.75
2023-05-21T19:05:25.798Z,9.88
2023-05-21T19:07:53.121Z,10.20
2023-05-21T19:10:20.176Z,10.63
2023-05-21T19:12:48.276Z,9.77
2023-05-21T19:15:19.723Z,10.27
2023-05-21T19:17:47.054Z,18.45
2023-05-21T19:20:25.037Z,11.73
2023-05-21T19:22:52.817Z,20.92
2023-05-21T19:25:45.302Z,15.60
2023-05-21T19:28:12.213Z,12.32
2023-05-21T19:30:39.417Z,12.15
2023-05-21T19:33:06.927Z,9.50
2023-05-21T19:35:36.362Z,8.82
2023-05-21T19:38:05.322Z,10.18
2023-05-21T19:40:34.783Z,10.25
2023-05-21T19:43:03.245Z,9.45
2023-05-21T19:45:30.241Z,9.32
2023-05-21T19:47:57.718Z,9.88
2023-05-21T19:50:24.926Z,9.65
2023-05-21T19:52:52.336Z,9.95
2023-05-21T19:55:20.467Z,9.32
2023-05-21T19:57:47.631Z,9.10
2023-05-21T20:00:15.139Z,8.27
2023-05-21T20:02:42.606Z,8.00
2023-05-21T20:05:09.999Z,7.70
2023-05-21T20:07:37.667Z,7.35
2023-05-21T20:10:04.975Z,7.90
2023-05-21T20:12:31.886Z,7.97
2023-05-21T20:15:00.171Z,8.43
2023-05-21T20:17:28.714Z,6.97
2023-05-21T20:19:59.073Z,7.45
2023-05-21T20:22:28.479Z,6.32
2023-05-21T20:24:56.116Z,7.00
2023-05-21T20:27:23.348Z,6.72
2023-05-21T20:29:50.439Z,7.80
2023-05-21T20:32:17.425Z,7.45
2023-05-21T20:35:01.543Z,6.70
2023-05-21T20:37:32.629Z,7.40
2023-05-21T20:42:34.931Z,7.38
2023-05-21T20:45:03.392Z,7.82
2023-05-21T20:47:30.432Z,8.15
2023-05-21T20:49:59.360Z,8.27
2023-05-21T20:52:26.974Z,8.23
2023-05-21T20:54:54.724Z,9.50
2023-05-21T20:57:26.201Z,9.77
2023-05-21T20:59:54.553Z,9.25
2023-05-21T21:02:21.831Z,9.60
2023-05-21T21:04:50.561Z,10.55
2023-05-21T21:07:18.860Z,10.00
2023-05-21T21:09:47.019Z,10.48
2023-05-21T21:12:25.117Z,10.43
2023-05-21T21:14:54.531Z,10.73
2023-05-21T21:17:22.170Z,10.75
2023-05-21T21:19:51.259Z,10.95
2023-05-21T21:22:18.710Z,10.97
2023-05-21T21:24:45.962Z,16.48
2023-05-21T21:27:12.961Z,14.40
2023-05-21T21:29:39.978Z,14.63
2023-05-21T21:32:07.319Z,11.90
2023-05-21T21:34:35.612Z,10.70
2023-05-21T21:37:03.466Z,10.13
2023-05-21T21:39:30.425Z,9.93
2023-05-21T21:41:57.691Z,9.68
2023-05-21T21:44:26.158Z,10.68
2023-05-21T21:46:53.306Z,10.07
2023-05-21T21:49:20.240Z,11.88
2023-05-21T21:51:48.389Z,11.05
2023-05-21T21:54:15.757Z,10.20
2023-05-21T21:56:44.049Z,10.45
2023-05-21T21:59:11.168Z,10.65
2023-05-21T22:01:38.333Z,11.43
2023-05-21T22:04:05.679Z,10.70
2023-05-21T22:06:33.268Z,11.32
2023-05-21T22:09:00.556Z,10.43
2023-05-21T22:11:28.402Z,10.13
2023-05-21T22:13:56.232Z,9.48
2023-05-21T22:16:25.021Z,10.15
2023-05-21T22:18:54.347Z,10.73
2023-05-21T22:21:27.441Z,10.25
2023-05-21T22:23:56.369Z,10.35
2023-05-21T22:26:23.449Z,11.43
2023-05-21T22:28:50.546Z,10.73
2023-05-21T22:31:17.650Z,10.25
2023-05-21T22:33:44.811Z,11.35
2023-05-21T22:36:11.889Z,11.05
2023-05-21T22:38:38.967Z,11.63
2023-05-21T22:41:06.062Z,10.98
2023-05-21T22:43:34.766Z,11.18
2023-05-21T22:46:03.175Z,10.43
2023-05-21T22:48:34.422Z,11.63
2023-05-21T22:51:01.996Z,11.23
2023-05-21T22:53:29.134Z,11.13
2023-05-21T22:55:56.271Z,11.98
2023-05-21T22:58:23.425Z,11.65
2023-05-21T23:00:50.560Z,12.30
2023-05-21T23:03:18.737Z,11.55
2023-05-21T23:05:46.234Z,12.88
2023-05-21T23:08:13.484Z,12.75
2023-05-21T23:10:42.001Z,12.82
2023-05-21T23:13:09.762Z,11.80
2023-05-21T23:15:39.202Z,11.18
2023-05-21T23:18:07.970Z,11.88
2023-05-21T23:20:35.391Z,11.35
2023-05-21T23:23:02.485Z,12.57
2023-05-21T23:25:30.117Z,11.40
2023-05-21T23:27:57.043Z,11.25
2023-05-21T23:30:24.078Z,11.77
2023-05-21T23:32:51.603Z,11.10
2023-05-21T23:35:19.215Z,11.88
2023-05-21T23:37:46.268Z,12.10
2023-05-21T23:40:13.462Z,11.15
2023-05-21T23:42:40.472Z,11.10
2023-05-21T23:45:07.865Z,11.30
2023-05-21T23:47:34.813Z,11.43
2023-05-21T23:50:02.229Z,11.02
2023-05-21T23:52:29.164Z,12.65
2023-05-21T23:54:59.300Z,11.88
2023-05-21T23:57:26.350Z,12.20
2023-05-21T23:59:57.116Z,12.90
